.
WxDataArchive / Data Records for 2010-05-27
2010-05-26 May 2010 2010-05-28

Data Records for Thursday, 27 May 2010

Time	Temp	Chill	HIndex	Humid	Dewpt	 Wind 	HiWind	WindDir	Rain 	Barom 
-----	----	-----	------	-----	-----	------	------	-------	-----	----- 
00:00	71.5	71.5	71.5	85	66.7	0	0	---	0.00	29.940 
00:05	71.3	71.3	71.3	85	66.5	0	0	---	0.00	29.940 
00:10	71.3	71.3	71.3	86	66.9	0	0	---	0.00	29.940 
00:15	71.3	71.3	71.3	86	66.9	0	0	---	0.00	29.942 
00:20	71.3	71.3	71.3	86	66.9	0	0	---	0.00	29.942 
00:25	71.3	71.3	71.3	86	66.9	0	0	---	0.00	29.942 
00:30	71.3	71.3	71.3	86	66.9	0	0	---	0.00	29.940 
00:35	71.1	71.1	71.1	86	66.7	0	0	---	0.00	29.940 
00:40	71.1	71.1	71.1	86	66.7	0	0	---	0.00	29.940 
00:45	71.1	71.1	71.1	86	66.7	0	0	---	0.00	29.939 
00:50	70.9	70.9	70.9	85	66.2	0	0	---	0.00	29.939 
00:55	70.9	70.9	70.9	86	66.5	0	0	---	0.00	29.939 
01:00	70.8	70.8	70.8	86	66.4	0	0	---	0.00	29.932 
01:05	70.8	70.8	70.8	86	66.4	0	0	---	0.00	29.932 
01:10	70.8	70.8	70.8	86	66.4	0	0	---	0.00	29.932 
01:15	70.8	70.8	70.8	86	66.4	0	0	---	0.00	29.928 
01:20	70.9	70.9	70.9	86	66.5	0	0	---	0.00	29.928 
01:25	71.1	71.1	71.1	85	66.4	0	0	---	0.00	29.928 
01:30	71.3	71.3	71.3	84	66.2	0	0	---	0.00	29.923 
01:35	71.5	71.5	71.5	83	66.1	0	0	---	0.00	29.923 
01:40	71.5	71.5	71.5	82	65.7	0	0	---	0.00	29.923 
01:45	71.3	71.3	71.3	82	65.5	0	1	90	0.00	29.920 
01:50	71.3	71.3	71.3	82	65.5	1	2	90	0.00	29.920 
01:55	71.5	71.5	71.5	82	65.7	0	2	90	0.00	29.920 
02:00	71.5	71.5	71.5	83	66.1	0	2	90	0.00	29.917 
02:05	71.3	71.3	71.3	83	65.9	0	1	90	0.00	29.917 
02:10	71.1	71.1	71.1	83	65.7	0	0	---	0.00	29.917 
02:15	70.9	70.9	70.9	83	65.5	0	0	---	0.00	29.916 
02:20	70.8	70.8	70.8	84	65.7	0	0	---	0.00	29.916 
02:25	70.6	70.6	70.6	84	65.5	0	0	---	0.00	29.916 
02:30	70.4	70.4	70.4	85	65.7	0	0	---	0.00	29.916 
02:35	70.3	70.3	70.3	85	65.6	0	0	---	0.00	29.916 
02:40	69.9	69.9	69.9	86	65.5	0	0	---	0.00	29.916 
02:45	69.8	69.8	69.8	86	65.4	0	0	---	0.00	29.912 
02:50	69.6	69.6	69.6	87	65.6	0	0	---	0.00	29.912 
02:55	69.4	69.4	69.4	87	65.4	0	0	---	0.00	29.912 
03:00	69.3	69.3	69.3	87	65.3	0	0	---	0.00	29.909 
03:05	69.1	69.1	69.1	88	65.4	0	0	---	0.00	29.909 
03:10	68.9	68.9	68.9	88	65.2	0	0	---	0.00	29.909 
03:15	68.9	68.9	68.9	88	65.2	0	0	---	0.00	29.907 
03:20	68.8	68.8	68.8	88	65.1	0	0	---	0.00	29.907 
03:25	68.6	68.6	68.6	88	64.9	0	0	---	0.00	29.907 
03:30	68.4	68.4	68.4	89	65.0	0	0	---	0.00	29.907 
03:35	68.4	68.4	68.4	89	65.0	0	0	---	0.00	29.907 
03:40	68.3	68.3	68.3	89	64.9	0	0	---	0.00	29.907 
03:45	68.3	68.3	68.3	89	64.9	0	0	---	0.00	29.904 
03:50	68.1	68.1	68.1	90	65.0	0	0	---	0.00	29.904 
03:55	68.1	68.1	68.1	90	65.0	0	0	---	0.00	29.904 
04:00	67.9	67.9	67.9	90	64.9	0	0	---	0.00	29.904 
04:05	67.9	67.9	67.9	90	64.9	0	0	---	0.00	29.904 
04:10	67.8	67.8	67.8	90	64.8	0	0	---	0.00	29.904 
04:15	67.8	67.8	67.8	90	64.8	0	0	---	0.00	29.907 
04:20	67.8	67.8	67.8	91	65.1	0	0	---	0.00	29.907 
04:25	67.9	67.9	67.9	91	65.2	0	0	---	0.00	29.907 
04:30	68.1	68.1	68.1	90	65.0	0	0	---	0.00	29.910 
04:35	68.1	68.1	68.1	90	65.0	0	0	---	0.00	29.910 
04:40	67.9	67.9	67.9	90	64.9	0	0	---	0.00	29.910 
04:45	67.9	67.9	67.9	90	64.9	0	0	---	0.00	29.907 
04:50	67.9	67.9	67.9	90	64.9	0	0	---	0.00	29.907 
04:55	67.9	67.9	67.9	89	64.5	0	0	---	0.00	29.907 
05:00	67.8	67.8	67.8	89	64.4	0	0	---	0.00	29.905 
05:05	67.8	67.8	67.8	89	64.4	0	0	---	0.00	29.905 
05:10	67.6	67.6	67.6	89	64.2	0	0	---	0.00	29.905 
05:15	67.6	67.6	67.6	89	64.2	0	0	---	0.00	29.905 
05:20	67.6	67.6	67.6	89	64.2	0	0	---	0.00	29.905 
05:25	67.4	67.4	67.4	89	64.0	0	0	---	0.00	29.905 
05:30	67.6	67.6	67.6	89	64.2	0	0	---	0.00	29.908 
05:35	67.4	67.4	67.4	89	64.0	0	0	---	0.00	29.908 
05:40	67.4	67.4	67.4	89	64.0	0	0	---	0.00	29.908 
05:45	67.4	67.4	67.4	89	64.0	0	0	---	0.00	29.912 
05:50	67.4	67.4	67.4	90	64.4	0	0	---	0.00	29.912 
05:55	67.4	67.4	67.4	89	64.0	0	0	---	0.00	29.912 
06:00	67.4	67.4	67.4	90	64.4	0	0	---	0.00	29.914 
06:05	67.3	67.3	67.3	89	63.9	0	0	---	0.00	29.914 
06:10	67.4	67.4	67.4	90	64.4	0	0	---	0.00	29.914 
06:15	67.4	67.4	67.4	90	64.4	0	0	---	0.00	29.919 
06:20	67.4	67.4	67.4	90	64.4	0	0	---	0.00	29.919 
06:25	67.4	67.4	67.4	90	64.4	0	0	---	0.00	29.919 
06:30	67.4	67.4	67.4	89	64.0	0	0	---	0.00	29.925 
06:35	67.4	67.4	67.4	89	64.0	0	0	---	0.00	29.925 
06:40	67.4	67.4	67.4	89	64.0	0	0	---	0.00	29.925 
06:45	67.4	67.4	67.4	89	64.0	0	0	---	0.00	29.928 
06:50	67.4	67.4	67.4	90	64.4	0	0	---	0.00	29.928 
06:55	67.4	67.4	67.4	90	64.4	0	0	---	0.00	29.928 
07:00	67.4	67.4	67.4	90	64.4	0	0	---	0.00	29.928 
07:05	67.6	67.6	67.6	90	64.6	0	0	---	0.00	29.928 
07:10	67.8	67.8	67.8	90	64.8	0	0	---	0.00	29.928 
07:15	67.9	67.9	67.9	89	64.5	0	0	---	0.00	29.930 
07:20	68.1	68.1	68.1	89	64.7	0	0	---	0.00	29.930 
07:25	68.4	68.4	68.4	88	64.7	0	0	---	0.00	29.930 
07:30	68.6	68.6	68.6	88	64.9	0	0	---	0.00	29.940 
07:35	68.9	68.9	68.9	87	64.9	0	0	---	0.00	29.940 
07:40	69.1	69.1	69.1	87	65.1	0	0	---	0.00	29.940 
07:45	69.3	69.3	69.3	86	64.9	0	0	---	0.00	29.943 
07:50	69.4	69.4	69.4	86	65.0	0	0	---	0.00	29.943 
07:55	69.8	69.8	69.8	85	65.1	0	0	---	0.00	29.943 
08:00	70.4	70.4	70.4	84	65.3	0	1	90	0.00	29.939 
08:05	71.1	71.1	71.1	84	66.0	0	0	---	0.00	29.939 
08:10	72.0	72.0	72.0	81	65.8	0	1	90	0.00	29.939 
08:15	72.8	72.8	72.8	77	65.2	0	1	90	0.00	29.938 
08:20	73.5	73.5	73.5	77	65.8	0	1	90	0.00	29.938 
08:25	74.4	74.4	74.4	76	66.3	0	0	---	0.00	29.938 
08:30	74.9	74.9	74.9	75	66.4	0	1	90	0.00	29.936 
08:35	75.4	75.4	76.8	73	66.1	0	2	90	0.00	29.936 
08:40	75.8	75.8	77.4	71	65.7	0	2	90	0.00	29.936 
08:45	76.3	76.3	78.0	69	65.4	1	3	90	0.00	29.937 
08:50	76.7	76.7	78.4	71	66.6	0	4	90	0.00	29.937 
08:55	77.0	77.0	78.7	73	67.7	0	0	---	0.00	29.937 
09:00	77.4	77.4	79.2	69	66.4	0	2	90	0.00	29.938 
09:05	77.6	77.6	79.4	66	65.3	0	2	90	0.00	29.938 
09:10	77.9	77.9	79.8	66	65.6	0	2	90	0.00	29.938 
09:15	78.3	78.3	80.2	66	66.0	0	1	90	0.00	29.942 
09:20	78.5	78.5	80.5	66	66.2	0	2	90	0.00	29.942 
09:25	78.8	78.8	80.8	65	66.0	0	2	90	0.00	29.942 
09:30	79.2	79.2	81.3	65	66.4	0	1	90	0.00	29.941 
09:35	79.6	79.6	81.5	62	65.4	0	2	90	0.00	29.941 
09:40	80.1	80.1	82.3	63	66.3	0	3	90	0.00	29.941 
09:45	80.3	80.3	82.5	63	66.5	1	3	90	0.00	29.943 
09:50	80.5	80.5	82.5	61	65.8	1	3	90	0.00	29.943 
09:55	80.5	80.5	82.5	61	65.8	1	3	90	0.00	29.943 
10:00	80.5	80.5	82.5	61	65.8	1	3	90	0.00	29.940 
10:05	80.9	80.9	83.4	63	67.1	0	2	90	0.00	29.940 
10:10	81.4	81.4	83.9	62	67.1	0	1	90	0.00	29.940 
10:15	81.8	81.8	83.8	58	65.6	0	2	90	0.00	29.942 
10:20	82.0	82.0	84.2	59	66.2	0	2	90	0.00	29.942 
10:25	82.4	82.4	85.0	60	67.1	1	3	90	0.00	29.942 
10:30	82.6	82.6	84.5	56	65.3	1	3	90	0.00	29.936 
10:35	82.4	82.4	84.2	56	65.1	0	2	90	0.00	29.936 
10:40	82.4	82.4	85.0	60	67.1	0	2	90	0.00	29.936 
10:45	82.4	82.4	85.0	60	67.1	0	1	90	0.00	29.937 
10:50	82.4	82.4	84.4	57	65.6	1	4	90	0.00	29.937 
10:55	82.4	82.4	84.4	57	65.6	0	2	90	0.00	29.937 
11:00	83.0	83.0	85.5	58	66.7	0	3	90	0.00	29.934 
11:05	83.4	83.4	85.6	56	66.0	1	4	90	0.00	29.934 
11:10	83.4	83.4	85.8	57	66.5	0	1	90	0.00	29.934 
11:15	83.2	83.2	85.3	56	65.8	1	3	90	0.00	29.938 
11:20	83.4	83.4	85.8	57	66.5	0	2	90	0.00	29.938 
11:25	83.8	83.8	86.0	55	65.9	1	2	90	0.00	29.938 
11:30	83.6	83.6	85.5	54	65.2	0	1	0	0.00	29.938 
11:35	83.4	83.4	85.4	55	65.5	1	3	292	0.00	29.938 
11:40	83.8	83.8	86.2	56	66.4	0	2	338	0.00	29.938 
11:45	84.3	84.3	86.5	54	65.8	0	2	338	0.00	29.936 
11:50	84.7	84.7	87.9	57	67.7	0	1	338	0.00	29.936 
11:55	84.5	84.5	87.0	55	66.5	1	4	338	0.00	29.936 
12:00	84.1	84.1	86.2	54	65.6	0	1	292	0.00	29.936 
12:05	84.3	84.3	86.0	52	64.7	0	1	292	0.00	29.936 
12:10	84.5	84.5	86.0	51	64.4	0	2	292	0.00	29.936 
12:15	84.3	84.3	86.0	52	64.7	1	4	292	0.00	29.933 
12:20	84.3	84.3	85.5	50	63.6	1	5	292	0.00	29.933 
12:25	84.3	84.3	85.3	49	63.0	1	3	292	0.00	29.933 
12:30	84.5	84.5	86.3	52	64.9	1	2	292	0.00	29.933 
12:35	84.9	84.9	86.3	50	64.2	0	3	292	0.00	29.933 
12:40	84.9	84.9	86.1	49	63.6	1	3	292	0.00	29.933 
12:45	85.1	85.1	86.6	50	64.3	1	3	292	0.00	29.927 
12:50	85.3	85.3	86.9	50	64.5	0	2	292	0.00	29.927 
12:55	85.5	85.5	87.2	50	64.7	1	6	112	0.00	29.927 
13:00	85.7	85.7	86.9	48	63.7	1	2	68	0.00	29.926 
13:05	85.9	85.9	87.5	49	64.5	1	4	292	0.00	29.926 
13:10	85.9	85.9	86.7	46	62.7	0	3	68	0.00	29.926 
13:15	86.1	86.1	87.2	47	63.5	1	4	248	0.00	29.922 
13:20	86.1	86.1	87.8	49	64.7	1	3	292	0.00	29.922 
13:25	86.1	86.1	87.5	48	64.1	1	7	315	0.00	29.922 
13:30	86.3	86.3	88.3	50	65.4	1	3	45	0.00	29.916 
13:35	86.3	86.3	88.0	49	64.9	1	3	45	0.00	29.916 
13:40	85.5	85.5	86.6	48	63.5	1	3	292	0.00	29.916 
13:45	84.7	84.7	85.6	48	62.8	1	3	292	0.00	29.912 
13:50	85.1	85.1	86.6	50	64.3	0	2	0	0.00	29.912 
13:55	84.3	84.3	85.3	49	63.0	0	4	315	0.00	29.912 
14:00	84.5	84.5	86.0	51	64.4	1	3	270	0.00	29.907 
14:05	84.7	84.7	86.3	51	64.5	1	6	90	0.00	29.907 
14:10	85.3	85.3	86.6	49	63.9	1	3	68	0.00	29.907 
14:15	84.9	84.9	85.8	48	63.0	1	4	338	0.00	29.902 
14:20	85.1	85.1	86.6	50	64.3	2	7	270	0.00	29.902 
14:25	85.5	85.5	86.6	48	63.5	1	4	292	0.00	29.902 
14:30	85.7	85.7	86.4	46	62.5	1	4	292	0.00	29.898 
14:35	85.7	85.7	86.2	45	61.9	1	3	0	0.00	29.898 
14:40	85.7	85.7	87.2	49	64.3	1	4	45	0.00	29.898 
14:45	85.7	85.7	86.7	47	63.1	1	3	338	0.00	29.892 
14:50	86.1	86.1	87.2	47	63.5	0	2	315	0.00	29.892 
14:55	85.9	85.9	86.9	47	63.3	0	2	315	0.00	29.892 
15:00	85.7	85.7	86.2	45	61.9	1	4	22	0.00	29.889 
15:05	85.9	85.9	86.9	47	63.3	1	2	45	0.00	29.889 
15:10	85.7	85.7	87.4	50	64.9	1	3	338	0.00	29.889 
15:15	85.9	85.9	86.9	47	63.3	1	3	90	0.00	29.882 
15:20	86.3	86.3	87.2	46	63.0	1	3	315	0.00	29.882 
15:25	86.5	86.5	87.5	46	63.2	1	3	338	0.00	29.882 
15:30	87.0	87.0	88.2	46	63.7	1	3	292	0.00	29.880 
15:35	86.3	86.3	87.2	46	63.0	1	4	292	0.00	29.880 
15:40	86.3	86.3	87.2	46	63.0	1	3	315	0.00	29.880 
15:45	86.3	86.3	87.2	46	63.0	1	5	292	0.00	29.879 
15:50	85.7	85.7	87.4	50	64.9	1	3	292	0.00	29.879 
15:55	85.5	85.5	86.4	47	62.9	1	3	292	0.00	29.879 
16:00	84.3	84.3	84.9	47	61.8	1	2	315	0.00	29.879 
16:05	83.6	83.6	84.4	49	62.4	1	3	315	0.00	29.879 
16:10	84.1	84.1	85.0	49	62.8	0	2	315	0.00	29.879 
16:15	84.7	84.7	85.4	47	62.2	2	4	292	0.00	29.871 
16:20	84.7	84.7	86.0	50	64.0	0	2	315	0.00	29.871 
16:25	85.3	85.3	86.4	48	63.4	1	2	315	0.00	29.871 
16:30	84.9	84.9	85.8	48	63.0	0	2	315	0.00	29.869 
16:35	84.1	84.1	85.3	50	63.4	1	4	292	0.00	29.869 
16:40	83.6	83.6	84.8	51	63.5	0	3	315	0.00	29.869 
16:45	84.0	84.0	85.1	50	63.3	1	4	292	0.00	29.865 
16:50	84.9	84.9	86.3	50	64.2	1	4	292	0.00	29.865 
16:55	85.3	85.3	85.9	46	62.1	1	5	292	0.00	29.865 
17:00	85.3	85.3	85.9	46	62.1	1	4	22	0.00	29.862 
17:05	84.7	84.7	85.6	48	62.8	1	4	292	0.00	29.862 
17:10	84.5	84.5	85.3	48	62.6	0	2	292	0.00	29.862 
17:15	84.3	84.3	85.3	49	63.0	1	4	315	0.00	29.868 
17:20	84.3	84.3	85.3	49	63.0	1	4	292	0.00	29.868 
17:25	84.5	84.5	85.6	49	63.2	1	4	338	0.00	29.868 
17:30	84.9	84.9	86.1	49	63.6	1	5	22	0.00	29.869 
17:35	84.9	84.9	85.6	47	62.4	2	5	315	0.00	29.869 
17:40	84.7	84.7	86.0	50	64.0	1	3	315	0.00	29.869 
17:45	84.5	84.5	85.1	47	62.0	1	3	292	0.00	29.870 
17:50	84.0	84.0	84.5	47	61.6	1	6	292	0.00	29.870 
17:55	83.4	83.4	83.8	47	61.0	1	4	315	0.00	29.870 
18:00	83.2	83.2	83.8	48	61.4	0	3	315	0.00	29.869 
18:05	83.4	83.4	84.0	48	61.6	1	4	0	0.00	29.869 
18:10	83.4	83.4	83.5	45	59.8	1	3	315	0.00	29.869 
18:15	83.4	83.4	83.7	46	60.4	1	4	202	0.00	29.869 
18:20	83.2	83.2	84.0	49	62.0	1	2	68	0.00	29.869 
18:25	83.2	83.2	83.4	46	60.2	1	3	0	0.00	29.869 
18:30	83.4	83.4	84.0	48	61.6	1	3	338	0.00	29.871 
18:35	83.2	83.2	83.8	48	61.4	0	4	270	0.00	29.871 
18:40	83.0	83.0	83.4	47	60.7	0	4	68	0.00	29.871 
18:45	83.2	83.2	83.4	46	60.2	1	4	292	0.00	29.872 
18:50	83.4	83.4	83.8	47	61.0	1	5	292	0.00	29.872 
18:55	83.4	83.4	83.7	46	60.4	1	3	0	0.00	29.872 
19:00	83.2	83.2	83.4	46	60.2	1	3	292	0.00	29.871 
19:05	83.2	83.2	83.4	46	60.2	1	5	270	0.00	29.871 
19:10	83.2	83.2	83.6	47	60.8	0	2	292	0.00	29.871 
19:15	82.8	82.8	83.2	47	60.5	1	2	292	0.00	29.871 
19:20	82.6	82.6	83.0	47	60.3	0	2	315	0.00	29.871 
19:25	82.2	82.2	82.7	48	60.5	0	2	315	0.00	29.871 
19:30	82.0	82.0	82.3	47	59.8	1	3	315	0.00	29.876 
19:35	81.8	81.8	82.4	49	60.7	0	3	315	0.00	29.876 
19:40	81.6	81.6	82.3	50	61.1	0	1	315	0.00	29.876 
19:45	81.2	81.2	81.9	50	60.8	0	1	315	0.00	29.880 
19:50	81.1	81.1	81.8	50	60.7	0	2	315	0.00	29.880 
19:55	80.7	80.7	81.4	50	60.3	0	1	315	0.00	29.880 
20:00	80.5	80.5	81.4	51	60.7	0	1	315	0.00	29.882 
20:05	80.1	80.1	81.0	51	60.3	0	2	315	0.00	29.882 
20:10	79.8	79.8	80.8	52	60.6	0	1	315	0.00	29.882 
20:15	79.6	79.6	80.5	51	59.9	0	2	315	0.00	29.885 
20:20	79.4	79.4	80.4	51	59.7	0	1	315	0.00	29.885 
20:25	79.2	79.2	80.3	52	60.0	0	1	315	0.00	29.885 
20:30	79.0	79.0	80.1	52	59.8	0	1	315	0.00	29.892 
20:35	78.8	78.8	80.0	53	60.2	0	1	315	0.00	29.892 
20:40	78.6	78.6	79.8	52	59.5	0	0	---	0.00	29.892 
20:45	78.5	78.5	79.8	53	59.9	0	0	---	0.00	29.896 
20:50	78.1	78.1	79.5	54	60.1	0	3	45	0.00	29.896 
20:55	77.4	77.4	78.9	53	58.9	4	11	90	0.00	29.896 
21:00	76.8	76.8	78.6	54	58.9	2	7	112	0.00	29.905 
21:05	76.3	76.3	78.3	54	58.4	2	5	90	0.00	29.905 
21:10	76.0	76.0	78.1	55	58.6	1	6	90	0.00	29.905 
21:15	75.6	75.6	77.8	56	58.8	0	4	270	0.00	29.911 
21:20	75.3	75.3	77.6	57	59.0	1	4	90	0.00	29.911 
21:25	75.3	75.3	77.6	57	59.0	1	3	112	0.00	29.911 
21:30	74.9	74.9	74.9	60	60.1	0	1	112	0.00	29.912 
21:35	74.6	74.6	74.6	62	60.7	0	1	112	0.00	29.912 
21:40	74.2	74.2	74.2	63	60.8	0	1	112	0.00	29.912 
21:45	74.0	74.0	74.0	63	60.6	0	2	112	0.00	29.922 
21:50	73.9	73.9	73.9	64	60.9	0	1	112	0.00	29.922 
21:55	73.7	73.7	73.7	64	60.7	0	0	---	0.00	29.922 
22:00	73.7	73.7	73.7	64	60.7	0	1	112	0.00	29.925 
22:05	73.5	73.5	73.5	64	60.6	0	0	---	0.00	29.925 
22:10	73.3	73.3	73.3	65	60.8	0	0	---	0.00	29.925 
22:15	73.2	73.2	73.2	65	60.7	0	0	---	0.00	29.927 
22:20	73.0	73.0	73.0	66	61.0	0	0	---	0.00	29.927 
22:25	72.8	72.8	72.8	66	60.8	0	0	---	0.00	29.927 
22:30	72.7	72.7	72.7	66	60.7	0	0	---	0.00	29.931 
22:35	72.7	72.7	72.7	66	60.7	0	0	---	0.00	29.931 
22:40	72.5	72.5	72.5	66	60.5	0	0	---	0.00	29.931 
22:45	72.3	72.3	72.3	66	60.3	0	0	---	0.00	29.930 
22:50	72.1	72.1	72.1	66	60.1	0	0	---	0.00	29.930 
22:55	72.0	72.0	72.0	66	60.0	0	0	---	0.00	29.930 
23:00	71.8	71.8	71.8	66	59.8	0	0	---	0.00	29.928 
23:05	71.6	71.6	71.6	67	60.0	0	0	---	0.00	29.928 
23:10	71.5	71.5	71.5	67	60.0	0	0	---	0.00	29.928 
23:15	71.3	71.3	71.3	68	60.2	0	0	---	0.00	29.928 
23:20	71.3	71.3	71.3	68	60.2	0	0	---	0.00	29.928 
23:25	71.3	71.3	71.3	68	60.2	0	0	---	0.00	29.928 
23:30	71.1	71.1	71.1	69	60.4	0	0	---	0.00	29.926 
23:35	70.8	70.8	70.8	69	60.1	0	0	---	0.00	29.926 
23:40	70.6	70.6	70.6	70	60.3	0	0	---	0.00	29.926 
23:45	70.4	70.4	70.4	70	60.1	0	0	---	0.00	29.922 
23:50	70.3	70.3	70.3	69	59.6	0	0	---	0.00	29.922 
23:55	70.4	70.4	70.4	66	58.5	0	0	---	0.00	29.922 

CoCoRaHS
IN-AL-39
A2 Web Hosting
Creative Commons License
GoDaddy
search engine by freefind advanced

loaded 2018-11-20 03:04:37 • last modified 2010-11-18 10:43:29
Privacy PolicyDisclaimer
• wx.awcolley.com is powered by PmWiki v.2002016 •
• all content (unless otherwise noted) © 2018 A W Colley